sensor_id;sensor_type;location;lat;lon;timestamp;P1;durP1;ratioP1;P2;durP2;ratioP2
69203;SDS011;56317;27.658;85.326;2022-11-25T00:01:14;85.50;;;43.33;;
69203;SDS011;56317;27.658;85.326;2022-11-25T00:03:43;76.07;;;46.42;;
69203;SDS011;56317;27.658;85.326;2022-11-25T00:06:13;79.13;;;48.80;;
69203;SDS011;56317;27.658;85.326;2022-11-25T00:08:53;78.00;;;41.85;;
69203;SDS011;56317;27.658;85.326;2022-11-25T00:11:21;79.72;;;43.70;;
69203;SDS011;56317;27.658;85.326;2022-11-25T00:13:48;75.22;;;43.22;;
69203;SDS011;56317;27.658;85.326;2022-11-25T00:16:17;87.63;;;45.88;;
69203;SDS011;56317;27.658;85.326;2022-11-25T00:18:46;110.70;;;50.38;;
69203;SDS011;56317;27.658;85.326;2022-11-25T00:21:17;96.38;;;48.30;;
69203;SDS011;56317;27.658;85.326;2022-11-25T00:23:55;93.25;;;51.75;;
69203;SDS011;56317;27.658;85.326;2022-11-25T00:26:28;92.07;;;50.42;;
69203;SDS011;56317;27.658;85.326;2022-11-25T00:29:00;75.40;;;38.75;;
69203;SDS011;56317;27.658;85.326;2022-11-25T00:31:31;101.22;;;51.00;;
69203;SDS011;56317;27.658;85.326;2022-11-25T00:34:00;97.03;;;52.67;;
69203;SDS011;56317;27.658;85.326;2022-11-25T00:36:31;105.88;;;53.97;;
69203;SDS011;56317;27.658;85.326;2022-11-25T00:39:06;98.00;;;58.05;;
69203;SDS011;56317;27.658;85.326;2022-11-25T00:41:36;109.68;;;57.50;;
69203;SDS011;56317;27.658;85.326;2022-11-25T00:44:21;130.63;;;65.53;;
69203;SDS011;56317;27.658;85.326;2022-11-25T00:49:39;117.28;;;68.20;;
69203;SDS011;56317;27.658;85.326;2022-11-25T00:52:14;122.72;;;65.95;;
69203;SDS011;56317;27.658;85.326;2022-11-25T00:54:52;121.20;;;66.28;;
69203;SDS011;56317;27.658;85.326;2022-11-25T00:57:20;130.75;;;65.53;;
69203;SDS011;56317;27.658;85.326;2022-11-25T00:59:48;128.13;;;63.22;;
69203;SDS011;56317;27.658;85.326;2022-11-25T01:02:16;133.52;;;62.70;;
69203;SDS011;56317;27.658;85.326;2022-11-25T01:04:44;127.70;;;61.72;;
69203;SDS011;56317;27.658;85.326;2022-11-25T01:07:12;131.73;;;61.38;;
69203;SDS011;56317;27.658;85.326;2022-11-25T01:09:39;112.97;;;58.55;;
69203;SDS011;56317;27.658;85.326;2022-11-25T01:12:06;121.75;;;59.90;;
69203;SDS011;56317;27.658;85.326;2022-11-25T01:14:33;102.65;;;56.85;;
69203;SDS011;56317;27.658;85.326;2022-11-25T01:17:01;113.03;;;56.53;;
69203;SDS011;56317;27.658;85.326;2022-11-25T01:19:29;110.20;;;56.33;;
69203;SDS011;56317;27.658;85.326;2022-11-25T01:21:56;110.32;;;57.45;;
69203;SDS011;56317;27.658;85.326;2022-11-25T01:24:23;108.13;;;56.60;;
69203;SDS011;56317;27.658;85.326;2022-11-25T01:26:51;101.30;;;56.75;;
69203;SDS011;56317;27.658;85.326;2022-11-25T01:29:20;106.63;;;54.03;;
69203;SDS011;56317;27.658;85.326;2022-11-25T01:31:48;96.35;;;51.88;;
69203;SDS011;56317;27.658;85.326;2022-11-25T01:34:16;103.50;;;55.65;;
69203;SDS011;56317;27.658;85.326;2022-11-25T01:36:45;117.25;;;67.65;;
69203;SDS011;56317;27.658;85.326;2022-11-25T01:39:16;129.93;;;78.68;;
69203;SDS011;56317;27.658;85.326;2022-11-25T01:41:44;94.10;;;57.70;;
69203;SDS011;56317;27.658;85.326;2022-11-25T01:55:10;121.00;;;72.35;;
69203;SDS011;56317;27.658;85.326;2022-11-25T01:58:06;116.93;;;70.53;;
69203;SDS011;56317;27.658;85.326;2022-11-25T02:00:36;116.38;;;70.88;;
69203;SDS011;56317;27.658;85.326;2022-11-25T02:03:04;115.63;;;70.47;;
69203;SDS011;56317;27.658;85.326;2022-11-25T02:05:37;121.22;;;67.95;;
69203;SDS011;56317;27.658;85.326;2022-11-25T02:08:25;101.15;;;63.95;;
69203;SDS011;56317;27.658;85.326;2022-11-25T02:10:53;106.95;;;65.97;;
69203;SDS011;56317;27.658;85.326;2022-11-25T02:13:22;134.35;;;73.53;;
69203;SDS011;56317;27.658;85.326;2022-11-25T02:15:50;111.43;;;70.93;;
69203;SDS011;56317;27.658;85.326;2022-11-25T02:18:17;90.93;;;57.00;;
69203;SDS011;56317;27.658;85.326;2022-11-25T02:20:44;90.10;;;54.42;;
69203;SDS011;56317;27.658;85.326;2022-11-25T02:25:56;90.07;;;53.97;;
69203;SDS011;56317;27.658;85.326;2022-11-25T02:28:24;86.40;;;54.30;;
69203;SDS011;56317;27.658;85.326;2022-11-25T02:30:54;93.40;;;59.53;;
69203;SDS011;56317;27.658;85.326;2022-11-25T02:33:23;88.70;;;53.55;;
69203;SDS011;56317;27.658;85.326;2022-11-25T02:35:54;100.15;;;60.63;;
69203;SDS011;56317;27.658;85.326;2022-11-25T02:43:23;100.72;;;57.05;;
69203;SDS011;56317;27.658;85.326;2022-11-25T02:45:59;97.53;;;52.90;;
69203;SDS011;56317;27.658;85.326;2022-11-25T02:48:42;85.35;;;52.15;;
69203;SDS011;56317;27.658;85.326;2022-11-25T02:51:10;83.35;;;52.10;;
69203;SDS011;56317;27.658;85.326;2022-11-25T02:53:39;81.13;;;50.03;;
69203;SDS011;56317;27.658;85.326;2022-11-25T02:56:08;83.80;;;51.80;;
69203;SDS011;56317;27.658;85.326;2022-11-25T02:58:36;90.20;;;55.08;;
69203;SDS011;56317;27.658;85.326;2022-11-25T03:01:04;87.20;;;51.08;;
69203;SDS011;56317;27.658;85.326;2022-11-25T03:03:31;80.50;;;51.65;;
69203;SDS011;56317;27.658;85.326;2022-11-25T03:05:58;76.60;;;49.63;;
69203;SDS011;56317;27.658;85.326;2022-11-25T03:08:26;82.35;;;45.30;;
69203;SDS011;56317;27.658;85.326;2022-11-25T03:10:53;73.65;;;42.50;;
69203;SDS011;56317;27.658;85.326;2022-11-25T03:13:20;86.25;;;47.92;;
69203;SDS011;56317;27.658;85.326;2022-11-25T03:15:48;82.95;;;49.28;;
69203;SDS011;56317;27.658;85.326;2022-11-25T03:18:15;94.40;;;52.35;;
69203;SDS011;56317;27.658;85.326;2022-11-25T03:20:42;90.53;;;53.97;;
69203;SDS011;56317;27.658;85.326;2022-11-25T03:23:09;94.50;;;54.05;;
69203;SDS011;56317;27.658;85.326;2022-11-25T03:25:37;90.55;;;53.45;;
69203;SDS011;56317;27.658;85.326;2022-11-25T03:28:04;86.38;;;51.13;;
69203;SDS011;56317;27.658;85.326;2022-11-25T03:30:31;84.18;;;50.50;;
69203;SDS011;56317;27.658;85.326;2022-11-25T03:32:59;85.15;;;53.22;;
69203;SDS011;56317;27.658;85.326;2022-11-25T03:35:26;92.03;;;49.90;;
69203;SDS011;56317;27.658;85.326;2022-11-25T03:37:55;83.22;;;50.40;;
69203;SDS011;56317;27.658;85.326;2022-11-25T03:40:22;79.15;;;51.47;;
69203;SDS011;56317;27.658;85.326;2022-11-25T03:42:49;74.75;;;48.97;;
69203;SDS011;56317;27.658;85.326;2022-11-25T03:45:17;80.03;;;50.80;;
69203;SDS011;56317;27.658;85.326;2022-11-25T03:47:44;97.20;;;53.13;;
69203;SDS011;56317;27.658;85.326;2022-11-25T03:50:12;94.15;;;55.85;;
69203;SDS011;56317;27.658;85.326;2022-11-25T03:52:41;86.30;;;55.35;;
69203;SDS011;56317;27.658;85.326;2022-11-25T03:55:08;86.50;;;52.88;;
69203;SDS011;56317;27.658;85.326;2022-11-25T03:57:37;79.53;;;56.00;;
69203;SDS011;56317;27.658;85.326;2022-11-25T04:00:06;89.45;;;58.30;;
69203;SDS011;56317;27.658;85.326;2022-11-25T04:02:34;87.43;;;57.35;;
69203;SDS011;56317;27.658;85.326;2022-11-25T04:05:01;88.97;;;58.72;;
69203;SDS011;56317;27.658;85.326;2022-11-25T04:07:30;93.18;;;60.15;;
69203;SDS011;56317;27.658;85.326;2022-11-25T04:09:57;93.72;;;61.33;;
69203;SDS011;56317;27.658;85.326;2022-11-25T04:12:24;94.38;;;61.92;;
69203;SDS011;56317;27.658;85.326;2022-11-25T04:15:10;101.53;;;61.90;;
69203;SDS011;56317;27.658;85.326;2022-11-25T04:17:37;95.32;;;60.35;;
69203;SDS011;56317;27.658;85.326;2022-11-25T04:20:05;101.97;;;62.28;;
69203;SDS011;56317;27.658;85.326;2022-11-25T04:22:32;91.18;;;60.72;;
69203;SDS011;56317;27.658;85.326;2022-11-25T04:25:00;97.90;;;60.00;;
69203;SDS011;56317;27.658;85.326;2022-11-25T04:27:27;84.25;;;58.22;;
69203;SDS011;56317;27.658;85.326;2022-11-25T04:29:54;88.18;;;56.50;;
69203;SDS011;56317;27.658;85.326;2022-11-25T04:32:22;99.25;;;58.72;;
69203;SDS011;56317;27.658;85.326;2022-11-25T04:34:49;92.85;;;57.92;;
69203;SDS011;56317;27.658;85.326;2022-11-25T04:37:17;91.07;;;61.42;;
69203;SDS011;56317;27.658;85.326;2022-11-25T04:39:44;92.15;;;59.75;;
69203;SDS011;56317;27.658;85.326;2022-11-25T04:42:11;97.10;;;58.05;;
69203;SDS011;56317;27.658;85.326;2022-11-25T04:44:57;87.47;;;59.63;;
69203;SDS011;56317;27.658;85.326;2022-11-25T04:47:27;88.57;;;57.55;;
69203;SDS011;56317;27.658;85.326;2022-11-25T04:49:55;97.28;;;58.15;;
69203;SDS011;56317;27.658;85.326;2022-11-25T04:52:22;94.72;;;56.33;;
69203;SDS011;56317;27.658;85.326;2022-11-25T04:54:50;86.90;;;56.03;;
69203;SDS011;56317;27.658;85.326;2022-11-25T04:57:17;73.35;;;51.45;;
69203;SDS011;56317;27.658;85.326;2022-11-25T04:59:45;91.15;;;58.13;;
69203;SDS011;56317;27.658;85.326;2022-11-25T05:04:47;90.88;;;58.45;;
69203;SDS011;56317;27.658;85.326;2022-11-25T05:07:17;81.47;;;57.38;;
69203;SDS011;56317;27.658;85.326;2022-11-25T05:09:46;89.65;;;55.35;;
69203;SDS011;56317;27.658;85.326;2022-11-25T05:12:15;96.82;;;56.03;;
69203;SDS011;56317;27.658;85.326;2022-11-25T05:17:13;80.53;;;52.55;;
69203;SDS011;56317;27.658;85.326;2022-11-25T05:19:42;82.68;;;53.53;;
69203;SDS011;56317;27.658;85.326;2022-11-25T05:22:14;80.88;;;52.08;;
69203;SDS011;56317;27.658;85.326;2022-11-25T05:24:43;76.78;;;50.17;;
69203;SDS011;56317;27.658;85.326;2022-11-25T05:27:10;70.28;;;49.00;;
69203;SDS011;56317;27.658;85.326;2022-11-25T05:29:38;79.75;;;51.38;;
69203;SDS011;56317;27.658;85.326;2022-11-25T05:32:06;79.38;;;52.30;;
69203;SDS011;56317;27.658;85.326;2022-11-25T05:34:33;75.22;;;51.05;;
69203;SDS011;56317;27.658;85.326;2022-11-25T05:37:01;85.47;;;51.08;;
69203;SDS011;56317;27.658;85.326;2022-11-25T05:39:28;77.47;;;50.00;;
69203;SDS011;56317;27.658;85.326;2022-11-25T05:41:56;76.07;;;50.80;;
69203;SDS011;56317;27.658;85.326;2022-11-25T05:44:23;65.20;;;46.92;;
69203;SDS011;56317;27.658;85.326;2022-11-25T05:46:51;75.78;;;50.88;;
69203;SDS011;56317;27.658;85.326;2022-11-25T05:49:19;77.20;;;50.45;;
69203;SDS011;56317;27.658;85.326;2022-11-25T05:51:46;72.63;;;47.97;;
69203;SDS011;56317;27.658;85.326;2022-11-25T05:54:14;61.17;;;47.45;;
69203;SDS011;56317;27.658;85.326;2022-11-25T05:56:44;66.43;;;49.03;;
69203;SDS011;56317;27.658;85.326;2022-11-25T05:59:11;72.07;;;48.53;;
69203;SDS011;56317;27.658;85.326;2022-11-25T06:01:39;75.60;;;48.83;;
69203;SDS011;56317;27.658;85.326;2022-11-25T06:04:06;83.82;;;49.65;;
69203;SDS011;56317;27.658;85.326;2022-11-25T06:06:35;81.10;;;49.33;;
69203;SDS011;56317;27.658;85.326;2022-11-25T06:09:02;78.97;;;49.42;;
69203;SDS011;56317;27.658;85.326;2022-11-25T06:11:29;72.82;;;48.05;;
69203;SDS011;56317;27.658;85.326;2022-11-25T06:13:57;75.80;;;48.65;;
69203;SDS011;56317;27.658;85.326;2022-11-25T06:16:24;77.65;;;49.08;;
69203;SDS011;56317;27.658;85.326;2022-11-25T06:18:52;66.97;;;43.83;;
69203;SDS011;56317;27.658;85.326;2022-11-25T06:21:21;62.28;;;42.65;;
69203;SDS011;56317;27.658;85.326;2022-11-25T06:23:48;74.80;;;44.63;;
69203;SDS011;56317;27.658;85.326;2022-11-25T06:26:17;72.07;;;44.35;;
69203;SDS011;56317;27.658;85.326;2022-11-25T06:28:46;64.68;;;41.72;;
69203;SDS011;56317;27.658;85.326;2022-11-25T06:31:18;66.80;;;43.83;;
69203;SDS011;56317;27.658;85.326;2022-11-25T06:33:49;105.55;;;48.95;;
69203;SDS011;56317;27.658;85.326;2022-11-25T06:36:19;75.38;;;47.83;;
69203;SDS011;56317;27.658;85.326;2022-11-25T06:38:52;60.90;;;41.55;;
69203;SDS011;56317;27.658;85.326;2022-11-25T06:41:20;54.60;;;37.08;;
69203;SDS011;56317;27.658;85.326;2022-11-25T06:43:48;59.33;;;36.90;;
69203;SDS011;56317;27.658;85.326;2022-11-25T06:46:16;73.15;;;39.08;;
69203;SDS011;56317;27.658;85.326;2022-11-25T06:48:45;64.72;;;37.60;;
69203;SDS011;56317;27.658;85.326;2022-11-25T06:51:13;57.15;;;34.88;;
69203;SDS011;56317;27.658;85.326;2022-11-25T06:53:40;50.88;;;35.42;;
69203;SDS011;56317;27.658;85.326;2022-11-25T06:58:47;57.30;;;36.83;;
69203;SDS011;56317;27.658;85.326;2022-11-25T07:01:17;53.00;;;34.17;;
69203;SDS011;56317;27.658;85.326;2022-11-25T07:03:58;58.33;;;36.40;;
69203;SDS011;56317;27.658;85.326;2022-11-25T07:06:27;54.60;;;35.53;;
69203;SDS011;56317;27.658;85.326;2022-11-25T07:08:56;46.45;;;31.23;;
69203;SDS011;56317;27.658;85.326;2022-11-25T07:11:31;50.85;;;29.88;;
69203;SDS011;56317;27.658;85.326;2022-11-25T07:14:02;52.55;;;30.25;;
69203;SDS011;56317;27.658;85.326;2022-11-25T07:16:35;48.47;;;28.05;;
69203;SDS011;56317;27.658;85.326;2022-11-25T07:19:10;46.78;;;26.42;;
69203;SDS011;56317;27.658;85.326;2022-11-25T07:24:08;27.88;;;18.02;;
69203;SDS011;56317;27.658;85.326;2022-11-25T07:26:37;24.25;;;14.85;;
69203;SDS011;56317;27.658;85.326;2022-11-25T07:29:07;32.47;;;19.50;;
69203;SDS011;56317;27.658;85.326;2022-11-25T07:31:37;23.05;;;15.18;;
69203;SDS011;56317;27.658;85.326;2022-11-25T07:34:15;24.75;;;13.10;;
69203;SDS011;56317;27.658;85.326;2022-11-25T07:36:48;24.45;;;12.95;;
69203;SDS011;56317;27.658;85.326;2022-11-25T07:39:20;21.83;;;12.82;;
69203;SDS011;56317;27.658;85.326;2022-11-25T07:41:56;25.02;;;10.27;;
69203;SDS011;56317;27.658;85.326;2022-11-25T07:44:47;15.75;;;9.52;;
69203;SDS011;56317;27.658;85.326;2022-11-25T07:47:17;20.42;;;10.60;;
69203;SDS011;56317;27.658;85.326;2022-11-25T07:49:44;28.35;;;12.05;;
69203;SDS011;56317;27.658;85.326;2022-11-25T07:52:12;21.50;;;11.18;;
69203;SDS011;56317;27.658;85.326;2022-11-25T07:54:39;24.95;;;11.73;;
69203;SDS011;56317;27.658;85.326;2022-11-25T07:57:06;27.80;;;12.20;;
69203;SDS011;56317;27.658;85.326;2022-11-25T07:59:33;30.27;;;12.10;;
69203;SDS011;56317;27.658;85.326;2022-11-25T08:02:04;26.15;;;12.27;;
69203;SDS011;56317;27.658;85.326;2022-11-25T08:04:32;22.50;;;11.88;;
69203;SDS011;56317;27.658;85.326;2022-11-25T08:06:59;28.25;;;11.93;;
69203;SDS011;56317;27.658;85.326;2022-11-25T08:09:26;23.95;;;11.38;;
69203;SDS011;56317;27.658;85.326;2022-11-25T08:11:53;24.73;;;12.60;;
69203;SDS011;56317;27.658;85.326;2022-11-25T08:14:21;34.17;;;13.15;;
69203;SDS011;56317;27.658;85.326;2022-11-25T08:16:50;27.13;;;12.70;;
69203;SDS011;56317;27.658;85.326;2022-11-25T08:19:17;24.65;;;11.45;;
69203;SDS011;56317;27.658;85.326;2022-11-25T08:21:44;20.40;;;11.13;;
69203;SDS011;56317;27.658;85.326;2022-11-25T08:24:16;22.58;;;12.40;;
69203;SDS011;56317;27.658;85.326;2022-11-25T08:26:45;21.83;;;10.02;;
69203;SDS011;56317;27.658;85.326;2022-11-25T08:29:14;28.58;;;10.48;;
69203;SDS011;56317;27.658;85.326;2022-11-25T08:31:42;18.55;;;9.15;;
69203;SDS011;56317;27.658;85.326;2022-11-25T08:34:15;17.55;;;8.57;;
69203;SDS011;56317;27.658;85.326;2022-11-25T08:36:44;17.48;;;7.22;;
69203;SDS011;56317;27.658;85.326;2022-11-25T08:39:11;22.90;;;9.38;;
69203;SDS011;56317;27.658;85.326;2022-11-25T08:41:39;23.67;;;11.25;;
69203;SDS011;56317;27.658;85.326;2022-11-25T08:44:07;17.50;;;11.55;;
69203;SDS011;56317;27.658;85.326;2022-11-25T08:46:37;23.73;;;13.00;;
69203;SDS011;56317;27.658;85.326;2022-11-25T08:49:06;22.50;;;14.00;;
69203;SDS011;56317;27.658;85.326;2022-11-25T08:51:35;24.58;;;13.88;;
69203;SDS011;56317;27.658;85.326;2022-11-25T08:54:03;32.78;;;13.88;;
69203;SDS011;56317;27.658;85.326;2022-11-25T08:56:32;32.38;;;14.20;;
69203;SDS011;56317;27.658;85.326;2022-11-25T08:58:59;22.60;;;13.00;;
69203;SDS011;56317;27.658;85.326;2022-11-25T09:01:27;30.30;;;13.45;;
69203;SDS011;56317;27.658;85.326;2022-11-25T09:03:55;29.08;;;13.57;;
69203;SDS011;56317;27.658;85.326;2022-11-25T09:06:24;29.27;;;13.52;;
69203;SDS011;56317;27.658;85.326;2022-11-25T09:08:58;39.38;;;13.52;;
69203;SDS011;56317;27.658;85.326;2022-11-25T09:11:26;26.02;;;11.98;;
69203;SDS011;56317;27.658;85.326;2022-11-25T09:13:54;25.75;;;11.82;;
69203;SDS011;56317;27.658;85.326;2022-11-25T09:16:21;25.38;;;10.63;;
69203;SDS011;56317;27.658;85.326;2022-11-25T09:18:48;25.00;;;10.10;;
69203;SDS011;56317;27.658;85.326;2022-11-25T09:21:16;30.42;;;9.88;;
69203;SDS011;56317;27.658;85.326;2022-11-25T09:23:43;21.67;;;9.07;;
69203;SDS011;56317;27.658;85.326;2022-11-25T09:26:21;23.33;;;8.90;;
69203;SDS011;56317;27.658;85.326;2022-11-25T09:28:51;21.92;;;9.98;;
69203;SDS011;56317;27.658;85.326;2022-11-25T09:31:19;25.50;;;9.27;;
69203;SDS011;56317;27.658;85.326;2022-11-25T09:33:47;21.95;;;8.93;;
69203;SDS011;56317;27.658;85.326;2022-11-25T09:36:15;20.63;;;9.52;;
69203;SDS011;56317;27.658;85.326;2022-11-25T09:38:44;23.17;;;9.32;;
69203;SDS011;56317;27.658;85.326;2022-11-25T09:44:35;30.20;;;11.70;;
69203;SDS011;56317;27.658;85.326;2022-11-25T09:50:01;23.77;;;12.80;;
69203;SDS011;56317;27.658;85.326;2022-11-25T09:55:43;35.13;;;13.18;;
69203;SDS011;56317;27.658;85.326;2022-11-25T10:00:57;25.52;;;11.05;;
69203;SDS011;56317;27.658;85.326;2022-11-25T10:09:23;31.05;;;12.45;;
69203;SDS011;56317;27.658;85.326;2022-11-25T10:14:41;27.02;;;13.70;;
69203;SDS011;56317;27.658;85.326;2022-11-25T10:20:10;34.70;;;15.25;;
69203;SDS011;56317;27.658;85.326;2022-11-25T10:22:54;29.35;;;14.60;;
69203;SDS011;56317;27.658;85.326;2022-11-25T10:25:36;36.08;;;15.52;;
69203;SDS011;56317;27.658;85.326;2022-11-25T10:30:58;49.55;;;16.67;;
69203;SDS011;56317;27.658;85.326;2022-11-25T10:33:43;36.38;;;16.63;;
69203;SDS011;56317;27.658;85.326;2022-11-25T10:38:59;37.47;;;15.85;;
69203;SDS011;56317;27.658;85.326;2022-11-25T10:41:36;33.97;;;15.38;;
69203;SDS011;56317;27.658;85.326;2022-11-25T10:44:35;44.42;;;23.33;;
69203;SDS011;56317;27.658;85.326;2022-11-25T10:58:38;43.65;;;20.05;;
69203;SDS011;56317;27.658;85.326;2022-11-25T11:03:50;47.00;;;20.73;;
69203;SDS011;56317;27.658;85.326;2022-11-25T11:08:57;42.47;;;18.02;;
69203;SDS011;56317;27.658;85.326;2022-11-25T11:11:25;36.10;;;18.55;;
69203;SDS011;56317;27.658;85.326;2022-11-25T11:16:42;49.40;;;20.00;;
69203;SDS011;56317;27.658;85.326;2022-11-25T11:19:21;36.08;;;17.70;;
69203;SDS011;56317;27.658;85.326;2022-11-25T11:21:54;39.22;;;17.27;;
69203;SDS011;56317;27.658;85.326;2022-11-25T11:24:25;37.08;;;18.45;;
69203;SDS011;56317;27.658;85.326;2022-11-25T11:30:28;45.80;;;19.48;;
69203;SDS011;56317;27.658;85.326;2022-11-25T11:32:56;49.00;;;20.73;;
69203;SDS011;56317;27.658;85.326;2022-11-25T11:35:29;51.67;;;19.80;;
69203;SDS011;56317;27.658;85.326;2022-11-25T11:38:12;56.22;;;19.67;;
69203;SDS011;56317;27.658;85.326;2022-11-25T11:41:07;61.97;;;20.98;;
69203;SDS011;56317;27.658;85.326;2022-11-25T11:46:35;49.78;;;21.98;;
69203;SDS011;56317;27.658;85.326;2022-11-25T11:54:43;46.80;;;21.45;;
69203;SDS011;56317;27.658;85.326;2022-11-25T11:59:49;47.05;;;23.83;;
69203;SDS011;56317;27.658;85.326;2022-11-25T12:05:00;63.40;;;23.65;;
69203;SDS011;56317;27.658;85.326;2022-11-25T12:12:51;63.28;;;24.35;;
69203;SDS011;56317;27.658;85.326;2022-11-25T12:17:52;68.97;;;31.92;;
69203;SDS011;56317;27.658;85.326;2022-11-25T12:23:27;66.43;;;29.15;;
69203;SDS011;56317;27.658;85.326;2022-11-25T12:29:13;72.80;;;29.33;;
69203;SDS011;56317;27.658;85.326;2022-11-25T12:31:50;90.07;;;40.30;;
69203;SDS011;56317;27.658;85.326;2022-11-25T12:37:11;77.15;;;33.70;;
69203;SDS011;56317;27.658;85.326;2022-11-25T12:39:48;95.22;;;38.20;;
69203;SDS011;56317;27.658;85.326;2022-11-25T12:42:41;99.45;;;40.90;;
69203;SDS011;56317;27.658;85.326;2022-11-25T12:47:37;107.18;;;47.63;;
69203;SDS011;56317;27.658;85.326;2022-11-25T12:50:05;84.28;;;46.58;;
69203;SDS011;56317;27.658;85.326;2022-11-25T12:52:59;97.05;;;46.25;;
69203;SDS011;56317;27.658;85.326;2022-11-25T12:55:37;94.57;;;43.25;;
69203;SDS011;56317;27.658;85.326;2022-11-25T12:58:09;108.85;;;48.65;;
69203;SDS011;56317;27.658;85.326;2022-11-25T13:17:50;98.00;;;52.22;;
69203;SDS011;56317;27.658;85.326;2022-11-25T13:23:05;106.32;;;48.75;;
69203;SDS011;56317;27.658;85.326;2022-11-25T13:25:47;119.45;;;48.33;;
69203;SDS011;56317;27.658;85.326;2022-11-25T13:28:34;98.90;;;47.38;;
69203;SDS011;56317;27.658;85.326;2022-11-25T13:36:15;138.50;;;65.57;;
69203;SDS011;56317;27.658;85.326;2022-11-25T13:51:56;125.75;;;64.80;;
69203;SDS011;56317;27.658;85.326;2022-11-25T13:54:49;136.52;;;69.40;;
69203;SDS011;56317;27.658;85.326;2022-11-25T13:57:24;135.43;;;69.35;;
69203;SDS011;56317;27.658;85.326;2022-11-25T14:00:00;175.43;;;84.22;;
69203;SDS011;56317;27.658;85.326;2022-11-25T14:02:36;172.25;;;79.65;;
69203;SDS011;56317;27.658;85.326;2022-11-25T14:08:10;161.27;;;78.70;;
69203;SDS011;56317;27.658;85.326;2022-11-25T14:14:18;164.00;;;78.90;;
69203;SDS011;56317;27.658;85.326;2022-11-25T14:22:37;186.32;;;83.68;;
69203;SDS011;56317;27.658;85.326;2022-11-25T14:27:43;168.35;;;83.78;;
69203;SDS011;56317;27.658;85.326;2022-11-25T14:30:12;147.52;;;79.97;;
69203;SDS011;56317;27.658;85.326;2022-11-25T14:32:48;157.57;;;79.65;;
69203;SDS011;56317;27.658;85.326;2022-11-25T14:35:43;154.85;;;79.43;;
69203;SDS011;56317;27.658;85.326;2022-11-25T14:40:51;125.65;;;73.40;;
69203;SDS011;56317;27.658;85.326;2022-11-25T14:43:37;179.57;;;80.55;;
69203;SDS011;56317;27.658;85.326;2022-11-25T14:46:12;152.45;;;77.35;;
69203;SDS011;56317;27.658;85.326;2022-11-25T14:48:42;158.35;;;78.38;;
69203;SDS011;56317;27.658;85.326;2022-11-25T14:51:10;166.02;;;77.40;;
69203;SDS011;56317;27.658;85.326;2022-11-25T14:53:48;150.25;;;75.60;;
69203;SDS011;56317;27.658;85.326;2022-11-25T14:56:24;153.75;;;79.78;;
69203;SDS011;56317;27.658;85.326;2022-11-25T14:58:58;168.68;;;81.38;;
69203;SDS011;56317;27.658;85.326;2022-11-25T15:01:27;163.20;;;76.38;;
69203;SDS011;56317;27.658;85.326;2022-11-25T15:04:39;141.80;;;69.88;;
69203;SDS011;56317;27.658;85.326;2022-11-25T15:06:49;148.20;;;74.18;;
69203;SDS011;56317;27.658;85.326;2022-11-25T15:12:05;118.50;;;61.67;;
69203;SDS011;56317;27.658;85.326;2022-11-25T15:14:42;165.95;;;73.50;;
69203;SDS011;56317;27.658;85.326;2022-11-25T15:20:18;154.35;;;73.22;;
69203;SDS011;56317;27.658;85.326;2022-11-25T15:22:45;111.45;;;56.33;;
69203;SDS011;56317;27.658;85.326;2022-11-25T15:25:14;94.78;;;46.05;;
69203;SDS011;56317;27.658;85.326;2022-11-25T15:27:44;84.50;;;42.28;;
69203;SDS011;56317;27.658;85.326;2022-11-25T15:30:23;105.57;;;52.45;;
69203;SDS011;56317;27.658;85.326;2022-11-25T15:32:51;77.95;;;35.30;;
69203;SDS011;56317;27.658;85.326;2022-11-25T15:35:22;78.95;;;38.67;;
69203;SDS011;56317;27.658;85.326;2022-11-25T15:40:38;64.88;;;33.25;;
69203;SDS011;56317;27.658;85.326;2022-11-25T15:43:24;94.68;;;45.15;;
69203;SDS011;56317;27.658;85.326;2022-11-25T15:45:59;93.07;;;42.97;;
69203;SDS011;56317;27.658;85.326;2022-11-25T15:48:36;95.32;;;44.55;;
69203;SDS011;56317;27.658;85.326;2022-11-25T15:51:10;93.07;;;42.88;;
69203;SDS011;56317;27.658;85.326;2022-11-25T15:54:18;93.45;;;44.80;;
69203;SDS011;56317;27.658;85.326;2022-11-25T15:56:44;81.20;;;40.13;;
69203;SDS011;56317;27.658;85.326;2022-11-25T15:59:36;81.82;;;40.97;;
69203;SDS011;56317;27.658;85.326;2022-11-25T16:10:27;91.30;;;41.92;;
69203;SDS011;56317;27.658;85.326;2022-11-25T16:16:25;60.95;;;28.65;;
69203;SDS011;56317;27.658;85.326;2022-11-25T16:18:39;62.78;;;30.23;;
69203;SDS011;56317;27.658;85.326;2022-11-25T16:21:26;99.07;;;43.53;;
69203;SDS011;56317;27.658;85.326;2022-11-25T16:29:32;118.78;;;58.85;;
69203;SDS011;56317;27.658;85.326;2022-11-25T16:32:46;100.90;;;49.15;;
69203;SDS011;56317;27.658;85.326;2022-11-25T16:35:10;123.10;;;55.90;;
69203;SDS011;56317;27.658;85.326;2022-11-25T16:37:48;109.13;;;57.92;;
69203;SDS011;56317;27.658;85.326;2022-11-25T16:40:15;124.10;;;57.35;;
69203;SDS011;56317;27.658;85.326;2022-11-25T16:42:47;112.93;;;55.58;;
69203;SDS011;56317;27.658;85.326;2022-11-25T16:45:22;107.20;;;57.25;;
69203;SDS011;56317;27.658;85.326;2022-11-25T16:47:51;127.97;;;57.25;;
69203;SDS011;56317;27.658;85.326;2022-11-25T16:50:18;115.25;;;57.40;;
69203;SDS011;56317;27.658;85.326;2022-11-25T16:52:47;111.63;;;56.47;;
69203;SDS011;56317;27.658;85.326;2022-11-25T16:55:14;120.85;;;59.33;;
69203;SDS011;56317;27.658;85.326;2022-11-25T16:57:44;117.50;;;61.97;;
69203;SDS011;56317;27.658;85.326;2022-11-25T17:00:13;93.72;;;51.75;;
69203;SDS011;56317;27.658;85.326;2022-11-25T17:02:41;78.95;;;45.90;;
69203;SDS011;56317;27.658;85.326;2022-11-25T17:05:16;96.90;;;47.03;;
69203;SDS011;56317;27.658;85.326;2022-11-25T17:07:46;68.03;;;38.53;;
69203;SDS011;56317;27.658;85.326;2022-11-25T17:10:17;79.57;;;42.03;;
69203;SDS011;56317;27.658;85.326;2022-11-25T17:12:46;101.75;;;49.63;;
69203;SDS011;56317;27.658;85.326;2022-11-25T17:15:15;93.80;;;48.75;;
69203;SDS011;56317;27.658;85.326;2022-11-25T17:17:44;103.55;;;47.75;;
69203;SDS011;56317;27.658;85.326;2022-11-25T17:20:14;104.30;;;48.00;;
69203;SDS011;56317;27.658;85.326;2022-11-25T17:22:47;107.78;;;50.05;;
69203;SDS011;56317;27.658;85.326;2022-11-25T17:25:15;102.85;;;48.22;;
69203;SDS011;56317;27.658;85.326;2022-11-25T17:27:42;119.65;;;49.78;;
69203;SDS011;56317;27.658;85.326;2022-11-25T17:30:17;100.72;;;46.25;;
69203;SDS011;56317;27.658;85.326;2022-11-25T17:33:02;95.53;;;46.90;;
69203;SDS011;56317;27.658;85.326;2022-11-25T17:35:32;88.80;;;44.50;;
69203;SDS011;56317;27.658;85.326;2022-11-25T17:37:59;99.57;;;46.90;;
69203;SDS011;56317;27.658;85.326;2022-11-25T17:40:27;92.32;;;45.67;;
69203;SDS011;56317;27.658;85.326;2022-11-25T17:42:54;101.00;;;48.13;;
69203;SDS011;56317;27.658;85.326;2022-11-25T17:45:21;111.93;;;52.90;;
69203;SDS011;56317;27.658;85.326;2022-11-25T17:47:49;106.18;;;53.20;;